Time;durP1;ratioP1;P1;durP2;ratioP2;P2;SDS_P1;SDS_P2;PMS_P1;PMS_P2;Temp;Humidity;BMP_temperature;BMP_pressure;BME280_temperature;BME280_humidity;BME280_pressure;Samples;Min_cycle;Max_cycle;Signal;HPM_P1;HPM_P2
2022/12/23 00:00:09;;;;;;;13.25;5.18;;;;;;;6.14;100.00;97526.72;4990977;28;20053;-78
2022/12/23 00:02:35;;;;;;;12.65;5.93;;;;;;;6.17;100.00;97526.22;4991571;28;20500;-77
2022/12/23 00:05:00;;;;;;;14.68;6.10;;;;;;;6.04;100.00;97515.00;4991723;28;20033;-78
2022/12/23 00:07:25;;;;;;;17.55;6.75;;;;;;;6.12;100.00;97521.66;4991499;28;20039;-78
2022/12/23 00:09:51;;;;;;;17.83;6.72;;;;;;;6.18;100.00;97512.69;4993066;28;20050;-79
2022/12/23 00:15:06;;;;;;;17.35;7.70;;;;;;;6.24;100.00;97526.81;4989633;28;20093;-78
2022/12/23 00:17:42;;;;;;;22.33;8.27;;;;;;;6.22;100.00;97518.31;4989630;28;20125;-78
2022/12/23 00:20:08;;;;;;;;;;;;;;;6.19;100.00;97524.91;4986383;28;20030;-79
2022/12/23 00:25:18;;;;;;;18.05;8.07;;;;;;;6.21;100.00;97532.59;4986698;28;20049;-78
2022/12/23 00:28:00;;;;;;;23.40;8.20;;;;;;;6.28;100.00;97518.09;4986207;28;20502;-78
2022/12/23 00:30:26;;;;;;;17.75;7.65;;;;;;;6.18;100.00;97515.34;4983918;28;20022;-78
2022/12/23 00:32:52;;;;;;;14.80;5.72;;;;;;;6.11;100.00;97517.44;4980037;28;20139;-77
2022/12/23 00:35:17;;;;;;;16.58;6.38;;;;;;;6.17;100.00;97521.72;5001217;28;20192;-78
2022/12/23 00:37:43;;;;;;;22.63;7.85;;;;;;;6.24;100.00;97529.44;4990901;28;20872;-78
2022/12/23 00:42:56;;;;;;;16.67;7.13;;;;;;;6.30;100.00;97541.69;4975973;28;20038;-79
2022/12/23 00:45:22;;;;;;;19.40;10.18;;;;;;;6.34;100.00;97537.47;4988202;28;20136;-79
2022/12/23 00:50:35;;;;;;;15.00;7.63;;;;;;;6.28;100.00;97527.88;4991097;28;20041;-80
2022/12/23 00:53:00;;;;;;;17.63;8.20;;;;;;;6.15;100.00;97523.00;4995005;28;20038;-80
2022/12/23 00:55:25;;;;;;;16.35;7.57;;;;;;;6.32;100.00;97523.69;4995017;28;20122;-77
2022/12/23 00:57:51;;;;;;;16.27;8.10;;;;;;;6.32;100.00;97527.13;4976938;28;20038;-78
2022/12/23 01:00:17;;;;;;;18.13;9.00;;;;;;;6.32;100.00;97528.97;4986459;28;20102;-78
2022/12/23 01:05:35;;;;;;;19.85;7.18;;;;;;;6.36;100.00;97530.06;4992180;28;20144;-78
2022/12/23 01:08:01;;;;;;;22.50;8.70;;;;;;;6.46;100.00;97530.97;4986775;28;20085;-77
2022/12/23 01:10:26;;;;;;;15.18;8.52;;;;;;;6.51;100.00;97535.50;4986620;28;20034;-77
2022/12/23 01:12:53;;;;;;;13.30;8.25;;;;;;;6.37;100.00;97527.19;4986133;28;20063;-78
2022/12/23 01:15:18;;;;;;;15.40;8.55;;;;;;;6.50;100.00;97531.25;4990127;28;20026;-77
2022/12/23 01:17:43;;;;;;;14.73;8.32;;;;;;;6.40;100.00;97531.19;4986963;28;20505;-78
2022/12/23 01:20:09;;;;;;;17.08;8.55;;;;;;;6.49;100.00;97533.09;4987926;28;20053;-78
2022/12/23 01:22:35;;;;;;;21.20;7.82;;;;;;;6.53;100.00;97538.69;4987763;28;20037;-79
2022/12/23 01:25:00;;;;;;;16.67;7.70;;;;;;;6.45;100.00;97533.84;4994401;28;20038;-77
2022/12/23 01:27:25;;;;;;;15.32;8.30;;;;;;;6.44;100.00;97533.06;4990164;28;20037;-78
2022/12/23 01:29:51;;;;;;;15.65;8.35;;;;;;;6.47;100.00;97529.91;4987094;28;20022;-78
2022/12/23 01:32:16;;;;;;;24.02;10.18;;;;;;;6.47;100.00;97542.34;4988183;28;20120;-78
2022/12/23 01:34:41;;;;;;;14.35;8.77;;;;;;;6.43;100.00;97530.66;4988565;28;20026;-78
2022/12/23 01:37:07;;;;;;;19.80;8.48;;;;;;;6.45;100.00;97541.81;4971001;28;20132;-78
2022/12/23 01:39:32;;;;;;;14.63;7.75;;;;;;;6.46;100.00;97538.91;4990532;28;20113;-78
2022/12/23 01:45:12;;;;;;;23.75;9.38;;;;;;;6.53;100.00;97544.78;4985012;28;20087;-78
2022/12/23 01:47:43;;;;;;;20.83;8.13;;;;;;;6.58;100.00;97547.47;4988954;28;20030;-78
2022/12/23 01:50:26;;;;;;;17.70;7.90;;;;;;;6.50;100.00;97544.50;4988791;28;20022;-78
2022/12/23 01:52:59;;;;;;;15.23;7.93;;;;;;;6.54;100.00;97537.63;4985671;28;20046;-78
2022/12/23 01:55:30;;;;;;;23.25;9.13;;;;;;;6.38;100.00;97530.59;4989805;28;20026;-78
2022/12/23 01:58:04;;;;;;;18.85;7.97;;;;;;;6.45;100.00;97539.16;4985413;28;20503;-78
2022/12/23 02:09:15;;;;;;;19.92;8.10;;;;;;;6.43;100.00;97551.84;4992396;28;20052;-78
2022/12/23 02:11:51;;;;;;;18.92;8.50;;;;;;;6.41;100.00;97548.66;4987070;28;20045;-77
2022/12/23 02:17:23;;;;;;;16.60;8.13;;;;;;;6.35;100.00;97552.34;4982351;28;20091;-78
2022/12/23 02:20:13;;;;;;;13.57;7.22;;;;;;;6.41;100.00;97559.25;4993607;28;20383;-78
2022/12/23 02:22:45;;;;;;;13.50;7.55;;;;;;;6.50;100.00;97549.78;4985219;28;21030;-77
2022/12/23 02:25:23;;;;;;;15.32;7.70;;;;;;;6.46;100.00;97556.66;4994529;28;20040;-78
2022/12/23 02:28:15;;;;;;;14.13;8.45;;;;;;;6.40;100.00;97552.38;4979673;28;20041;-77
2022/12/23 02:30:56;;;;;;;12.10;8.05;;;;;;;6.25;100.00;97563.63;4982845;28;20033;-79
2022/12/23 02:34:16;;;;;;;16.42;7.80;;;;;;;6.43;100.00;97563.25;4987023;28;20038;-78
2022/12/23 02:37:04;;;;;;;15.32;7.53;;;;;;;6.34;100.00;97564.78;4924540;28;20057;-78
2022/12/23 02:39:37;;;;;;;13.98;6.95;;;;;;;6.48;100.00;97570.47;4987843;28;20030;-79
2022/12/23 02:42:15;;;;;;;16.45;8.10;;;;;;;6.55;100.00;97565.75;4983140;28;20105;-78
2022/12/23 02:44:43;;;;;;;15.75;7.85;;;;;;;6.31;100.00;97565.28;4981703;28;20049;-77
2022/12/23 02:47:19;;;;;;;11.52;7.50;;;;;;;6.37;100.00;97569.59;4980099;28;20495;-78
2022/12/23 02:49:50;;;;;;;18.15;7.72;;;;;;;6.46;100.00;97578.66;4981526;28;20025;-77
2022/12/23 02:52:19;;;;;;;12.13;7.82;;;;;;;6.38;100.00;97571.16;4988407;28;20015;-76
2022/12/23 02:54:51;;;;;;;16.52;8.30;;;;;;;6.49;99.68;97586.09;4988046;28;20041;-76
2022/12/23 02:57:23;;;;;;;13.45;8.38;;;;;;;6.46;100.00;97578.66;5005846;28;20045;-77
2022/12/23 02:59:50;;;;;;;13.45;8.07;;;;;;;6.38;100.00;97579.13;4985340;28;20030;-78
2022/12/23 03:02:16;;;;;;;17.83;8.00;;;;;;;6.46;100.00;97583.97;4992633;28;20395;-77
2022/12/23 03:04:42;;;;;;;11.75;6.95;;;;;;;6.38;100.00;97581.75;4990575;28;20035;-78
2022/12/23 03:07:17;;;;;;;17.98;8.02;;;;;;;6.41;100.00;97565.38;4991161;28;20489;-78
2022/12/23 03:10:01;;;;;;;10.68;7.38;;;;;;;6.50;100.00;97574.47;4987464;28;20051;-79
2022/12/23 03:12:35;;;;;;;10.23;6.25;;;;;;;6.38;100.00;97575.66;4985907;28;20058;-77
2022/12/23 03:15:13;;;;;;;17.58;7.97;;;;;;;6.38;100.00;97565.88;4985429;28;20049;-77
2022/12/23 03:17:59;;;;;;;17.52;7.63;;;;;;;6.38;100.00;97573.00;4995656;28;20053;-77
2022/12/23 03:20:40;;;;;;;10.50;7.43;;;;;;;6.32;100.00;97564.22;4989278;28;20042;-78
2022/12/23 03:23:22;;;;;;;16.60;8.13;;;;;;;6.37;100.00;97558.19;4981989;28;20026;-78
2022/12/23 03:26:01;;;;;;;14.95;8.32;;;;;;;6.35;100.00;97574.34;4976511;28;20050;-78
2022/12/23 03:28:35;;;;;;;14.23;6.82;;;;;;;6.38;100.00;97565.88;4976085;28;20117;-79
2022/12/23 03:31:04;;;;;;;11.55;7.80;;;;;;;6.29;100.00;97556.00;4976195;28;20044;-79
2022/12/23 03:33:43;;;;;;;10.25;6.53;;;;;;;6.41;100.00;97559.25;4977200;28;20062;-78
2022/12/23 03:36:30;;;;;;;12.82;7.35;;;;;;;6.36;100.00;97567.16;4974104;28;20041;-78
2022/12/23 03:38:56;;;;;;;16.75;7.15;;;;;;;6.38;100.00;97565.06;4977644;28;20042;-78
2022/12/23 03:41:38;;;;;;;11.65;7.63;;;;;;;6.42;100.00;97566.19;4974721;28;20045;-78
2022/12/23 03:44:17;;;;;;;16.50;7.45;;;;;;;6.31;100.00;97562.63;4968554;28;20022;-78
2022/12/23 03:46:54;;;;;;;11.82;6.85;;;;;;;6.26;100.00;97561.78;4984220;28;20058;-78
2022/12/23 03:49:26;;;;;;;13.65;6.82;;;;;;;6.27;100.00;97566.06;4982205;28;20395;-77
2022/12/23 03:52:21;;;;;;;11.82;7.15;;;;;;;6.35;100.00;97571.69;4983917;28;20026;-78
2022/12/23 03:54:54;;;;;;;14.85;7.22;;;;;;;6.36;99.88;97575.13;4989855;28;20100;-78
2022/12/23 03:57:33;;;;;;;10.25;7.35;;;;;;;6.19;100.00;97558.53;4984247;28;20026;-78
2022/12/23 03:59:59;;;;;;;14.45;7.40;;;;;;;6.26;99.87;97569.75;4982908;28;20036;-79
2022/12/23 04:02:31;;;;;;;16.40;7.18;;;;;;;6.33;100.00;97572.97;4991086;28;20124;-79
2022/12/23 04:05:04;;;;;;;12.57;5.90;;;;;;;6.34;100.00;97574.56;4986439;28;20523;-78
2022/12/23 04:07:35;;;;;;;13.10;6.68;;;;;;;6.27;100.00;97568.69;4987466;28;20021;-77
2022/12/23 04:10:01;;;;;;;11.60;6.82;;;;;;;6.32;100.00;97574.03;5005027;28;20173;-78
2022/12/23 04:12:28;;;;;;;12.32;6.38;;;;;;;6.33;100.00;97572.97;4991302;28;20034;-78
2022/12/23 04:14:54;;;;;;;11.88;6.55;;;;;;;6.31;100.00;97581.16;4989987;28;20023;-78
2022/12/23 04:17:19;;;;;;;14.02;7.10;;;;;;;6.35;99.81;97584.13;4981480;28;20040;-77
2022/12/23 04:19:45;;;;;;;11.52;6.88;;;;;;;6.45;99.83;97582.34;4983775;28;20049;-77
2022/12/23 04:22:12;;;;;;;19.63;7.40;;;;;;;6.37;100.00;97589.97;4983429;28;20031;-78
2022/12/23 04:24:38;;;;;;;9.82;5.80;;;;;;;6.30;100.00;97579.59;4982458;28;20030;-78
2022/12/23 04:27:04;;;;;;;8.65;6.25;;;;;;;6.46;100.00;97583.97;4987843;28;20046;-78
2022/12/23 04:29:29;;;;;;;9.88;6.10;;;;;;;6.37;99.90;97582.03;4991099;28;20057;-78
2022/12/23 04:31:55;;;;;;;15.25;7.10;;;;;;;6.43;100.00;97594.25;4987354;28;20494;-78
2022/12/23 04:34:20;;;;;;;13.85;6.97;;;;;;;6.40;99.76;97589.47;4986289;28;20061;-78
2022/12/23 04:36:45;;;;;;;11.63;6.20;;;;;;;6.40;99.64;97594.78;4988044;28;20201;-77
2022/12/23 04:39:11;;;;;;;10.70;6.80;;;;;;;6.41;100.00;97604.31;4990980;28;20088;-78
2022/12/23 04:41:36;;;;;;;10.77;5.90;;;;;;;6.47;100.00;97605.94;4987797;28;20049;-77
2022/12/23 04:44:02;;;;;;;13.75;6.22;;;;;;;6.39;100.00;97588.69;4985038;28;20038;-77
2022/12/23 04:46:27;;;;;;;10.35;5.88;;;;;;;6.42;100.00;97613.88;4987483;28;20510;-78
2022/12/23 04:48:52;;;;;;;12.13;6.65;;;;;;;6.44;100.00;97606.47;4985524;28;20089;-78
2022/12/23 04:51:18;;;;;;;15.13;6.40;;;;;;;6.27;100.00;97601.28;4988880;28;20030;-78
2022/12/23 04:53:43;;;;;;;12.73;6.60;;;;;;;6.37;100.00;97613.81;4984186;28;20039;-78
2022/12/23 04:56:08;;;;;;;12.32;6.55;;;;;;;6.36;100.00;97602.41;4983034;28;20049;-78
2022/12/23 04:58:34;;;;;;;16.10;6.22;;;;;;;6.36;100.00;97594.47;4976397;28;20038;-77
2022/12/23 05:01:01;;;;;;;11.80;6.53;;;;;;;6.46;100.00;97599.88;4975010;28;20042;-78
2022/12/23 05:03:26;;;;;;;9.45;6.43;;;;;;;6.38;100.00;97602.16;4984099;28;20033;-78
2022/12/23 05:05:52;;;;;;;12.88;6.20;;;;;;;6.55;100.00;97603.63;4986253;28;20038;-78
2022/12/23 05:08:17;;;;;;;7.88;5.63;;;;;;;6.49;100.00;97594.03;4984588;28;20077;-78
2022/12/23 05:10:44;;;;;;;14.25;6.47;;;;;;;6.36;100.00;97599.75;4990948;28;20109;-78
2022/12/23 05:13:09;;;;;;;10.02;5.82;;;;;;;6.41;100.00;97593.72;4991553;28;20023;-79
2022/12/23 05:15:34;;;;;;;10.40;6.13;;;;;;;6.52;100.00;97601.50;4989225;28;20045;-78
2022/12/23 05:18:00;;;;;;;12.45;6.05;;;;;;;6.41;100.00;97601.66;4985688;28;20125;-78
2022/12/23 05:20:25;;;;;;;8.45;5.07;;;;;;;6.37;100.00;97593.44;4988201;28;20112;-78
2022/12/23 05:22:50;;;;;;;6.93;5.60;;;;;;;6.44;100.00;97601.97;4990048;28;20054;-79
2022/12/23 05:25:16;;;;;;;10.98;5.30;;;;;;;6.48;100.00;97602.25;4994259;28;20061;-78
2022/12/23 05:27:41;;;;;;;10.20;5.80;;;;;;;6.44;100.00;97604.63;5007872;28;20043;-78
2022/12/23 05:30:07;;;;;;;10.18;5.78;;;;;;;6.44;100.00;97609.94;4987626;28;20048;-78
2022/12/23 05:32:32;;;;;;;13.55;6.53;;;;;;;6.37;100.00;97605.88;4986705;28;20118;-78
2022/12/23 05:34:58;;;;;;;10.65;6.43;;;;;;;6.32;100.00;97611.94;4988445;28;20507;-77
2022/12/23 05:37:24;;;;;;;11.70;6.32;;;;;;;6.36;100.00;97607.72;4988054;28;20070;-78
2022/12/23 05:39:49;;;;;;;7.38;5.28;;;;;;;6.40;100.00;97611.47;4987343;28;20061;-79
2022/12/23 05:42:18;;;;;;;11.77;5.75;;;;;;;6.44;100.00;97609.13;4986838;28;20487;-78
2022/12/23 05:44:44;;;;;;;11.23;5.13;;;;;;;6.38;100.00;97618.84;4968712;28;20026;-79
2022/12/23 05:47:09;;;;;;;9.13;6.72;;;;;;;6.42;100.00;97611.22;4981214;28;20030;-79
2022/12/23 05:49:34;;;;;;;9.80;5.80;;;;;;;6.33;100.00;97615.38;4988921;28;20030;-76
2022/12/23 05:52:00;;;;;;;7.72;4.55;;;;;;;6.36;100.00;97618.31;4971910;28;20050;-78
2022/12/23 05:54:25;;;;;;;8.25;5.10;;;;;;;6.41;100.00;97628.97;4980266;28;20034;-78
2022/12/23 05:56:51;;;;;;;8.45;5.22;;;;;;;6.44;100.00;97641.72;4986689;28;20128;-78
2022/12/23 05:59:16;;;;;;;8.27;5.30;;;;;;;6.43;100.00;97639.31;4985065;28;20041;-78
2022/12/23 06:01:42;;;;;;;13.15;5.47;;;;;;;6.41;100.00;97628.97;4985380;28;20081;-79
2022/12/23 06:04:07;;;;;;;8.07;6.05;;;;;;;6.37;100.00;97653.56;4986319;28;20554;-78
2022/12/23 06:06:32;;;;;;;6.45;4.47;;;;;;;6.37;100.00;97653.56;4988151;28;20124;-78
2022/12/23 06:08:58;;;;;;;6.93;4.70;;;;;;;6.51;100.00;97660.09;4990624;28;20172;-78
2022/12/23 06:11:23;;;;;;;6.03;5.43;;;;;;;6.49;100.00;97656.84;4985907;28;20157;-78
2022/12/23 06:13:48;;;;;;;7.60;5.25;;;;;;;6.51;100.00;97642.31;4985237;28;20121;-78
2022/12/23 06:16:14;;;;;;;7.63;5.35;;;;;;;6.51;100.00;97644.19;4991449;28;20045;-78
2022/12/23 06:18:39;;;;;;;6.90;4.95;;;;;;;6.61;100.00;97652.22;4988396;28;20041;-78
2022/12/23 06:21:04;;;;;;;8.40;5.43;;;;;;;6.51;100.00;97638.88;4981683;28;20435;-78
2022/12/23 06:23:30;;;;;;;8.93;4.82;;;;;;;6.60;100.00;97653.25;4980227;28;20125;-78
2022/12/23 06:25:59;;;;;;;7.50;5.47;;;;;;;6.60;100.00;97651.41;4985508;28;20034;-76
2022/12/23 06:28:25;;;;;;;5.60;4.60;;;;;;;6.50;100.00;97659.28;4985806;28;20042;-78
2022/12/23 06:30:55;;;;;;;7.20;4.40;;;;;;;6.57;100.00;97657.22;4986238;28;20022;-79
2022/12/23 06:33:21;;;;;;;6.80;4.60;;;;;;;6.53;100.00;97666.69;4984382;28;20033;-78
2022/12/23 06:35:47;;;;;;;7.93;5.15;;;;;;;6.54;100.00;97655.06;4987063;28;20038;-77
2022/12/23 06:38:12;;;;;;;7.90;5.60;;;;;;;6.56;100.00;97657.44;4989626;28;20049;-77
2022/12/23 06:40:38;;;;;;;6.57;4.43;;;;;;;6.57;100.00;97661.72;4984428;28;20448;-77
2022/12/23 06:43:03;;;;;;;7.95;4.85;;;;;;;6.46;100.00;97663.47;4969757;28;20486;-78
2022/12/23 06:45:28;;;;;;;5.75;4.90;;;;;;;6.56;100.00;97674.16;4986207;28;20497;-77
2022/12/23 06:47:54;;;;;;;7.53;5.32;;;;;;;6.69;99.63;97670.28;4987823;28;20092;-77
2022/12/23 06:50:19;;;;;;;7.93;5.03;;;;;;;6.69;100.00;97684.34;4986522;28;20022;-78
2022/12/23 06:52:45;;;;;;;9.13;5.22;;;;;;;6.68;100.00;97674.78;4988267;28;20096;-78
2022/12/23 06:55:10;;;;;;;8.65;5.60;;;;;;;6.69;100.00;97700.28;4984595;28;20038;-78
2022/12/23 06:57:36;;;;;;;7.90;5.82;;;;;;;6.77;100.00;97701.69;4984923;28;20562;-76
2022/12/23 07:00:03;;;;;;;8.82;7.53;;;;;;;6.60;100.00;97696.47;4988391;28;20114;-78
2022/12/23 07:02:29;;;;;;;7.63;5.28;;;;;;;6.70;100.00;97712.50;4989384;28;20030;-78
2022/12/23 07:04:54;;;;;;;6.82;4.93;;;;;;;6.78;99.72;97713.88;4986167;28;20406;-78
2022/12/23 07:07:19;;;;;;;8.27;5.40;;;;;;;6.65;99.78;97706.31;4989961;28;20050;-77
2022/12/23 07:09:45;;;;;;;6.38;5.10;;;;;;;6.69;100.00;97724.13;4988509;28;20034;-77
2022/12/23 07:12:10;;;;;;;7.25;5.10;;;;;;;6.72;100.00;97718.34;4990501;28;20030;-78
2022/12/23 07:14:35;;;;;;;10.65;5.68;;;;;;;6.61;100.00;97718.47;4989991;28;20038;-77
2022/12/23 07:17:01;;;;;;;9.35;5.45;;;;;;;6.61;100.00;97723.78;4982337;28;20046;-77
2022/12/23 07:19:26;;;;;;;7.90;6.22;;;;;;;6.55;100.00;97724.78;4981437;28;20042;-78
2022/12/23 07:21:51;;;;;;;7.57;4.88;;;;;;;6.57;100.00;97717.38;4984157;28;20444;-77
2022/12/23 07:24:17;;;;;;;7.07;6.07;;;;;;;6.68;100.00;97735.78;4985381;28;20038;-78
2022/12/23 07:26:42;;;;;;;10.45;6.10;;;;;;;6.70;100.00;97744.31;4981071;28;20488;-77
2022/12/23 07:29:07;;;;;;;8.25;5.63;;;;;;;6.62;100.00;97743.94;4984841;28;20042;-79
2022/12/23 07:31:33;;;;;;;9.00;6.47;;;;;;;6.67;100.00;97741.34;4986316;28;20030;-79
2022/12/23 07:33:58;;;;;;;9.45;5.90;;;;;;;6.76;100.00;97745.94;4983913;28;20036;-78
2022/12/23 07:36:23;;;;;;;10.52;7.15;;;;;;;6.68;99.95;97735.78;4990043;28;20030;-78
2022/12/23 07:38:53;;;;;;;8.70;5.45;;;;;;;6.67;100.00;97752.75;4983998;28;20034;-78
2022/12/23 07:41:18;;;;;;;5.82;4.70;;;;;;;6.62;100.00;97749.22;4996192;28;20053;-78
2022/12/23 07:43:44;;;;;;;6.78;5.38;;;;;;;6.63;100.00;97741.03;4984594;28;20034;-78
2022/12/23 07:46:09;;;;;;;7.82;5.90;;;;;;;6.68;99.52;97729.69;4997639;28;20088;-79
2022/12/23 07:48:35;;;;;;;8.63;5.30;;;;;;;6.77;100.00;97744.09;4993545;28;21197;-78
2022/12/23 07:51:03;;;;;;;10.63;5.32;;;;;;;6.76;99.79;97743.28;4998732;28;20111;-78
2022/12/23 07:53:29;;;;;;;7.53;5.53;;;;;;;6.73;100.00;97746.44;4998154;28;20049;-78
2022/12/23 07:55:55;;;;;;;6.75;5.53;;;;;;;6.76;99.78;97742.50;4969673;28;20046;-79
2022/12/23 07:58:20;;;;;;;7.90;5.60;;;;;;;6.81;99.75;97751.28;4985857;28;20104;-79
2022/12/23 08:00:46;;;;;;;9.18;4.90;;;;;;;6.76;100.00;97740.66;4990631;28;20062;-79
2022/12/23 08:03:11;;;;;;;6.57;4.30;;;;;;;6.70;100.00;97743.50;4992624;28;20033;-80
2022/12/23 08:05:36;;;;;;;7.47;4.80;;;;;;;6.62;100.00;97735.97;5004805;28;20034;-79
2022/12/23 08:08:02;;;;;;;6.82;4.90;;;;;;;6.61;99.45;97748.44;4991525;28;20121;-80
2022/12/23 08:10:28;;;;;;;4.35;3.65;;;;;;;6.61;100.00;97747.66;4991011;28;20038;-79
2022/12/23 08:12:54;;;;;;;6.38;4.82;;;;;;;6.61;100.00;97745.78;4988994;28;20030;-79
2022/12/23 08:15:20;;;;;;;7.32;4.80;;;;;;;6.77;100.00;97752.06;4991555;28;20053;-79
2022/12/23 08:17:45;;;;;;;7.53;4.53;;;;;;;6.65;99.26;97756.69;4993268;28;20033;-79
2022/12/23 08:20:11;;;;;;;4.72;3.63;;;;;;;6.61;100.00;97758.25;4992466;28;20573;-79
2022/12/23 08:22:36;;;;;;;6.25;4.07;;;;;;;6.87;99.67;97760.09;4989841;28;20877;-77
2022/12/23 08:25:02;;;;;;;5.88;4.53;;;;;;;6.80;98.93;97767.44;4984511;28;20058;-79
2022/12/23 08:27:28;;;;;;;4.18;3.67;;;;;;;6.80;99.09;97760.31;5004501;28;20034;-79
2022/12/23 08:29:54;;;;;;;5.07;4.00;;;;;;;6.84;99.16;97771.19;4982145;28;20125;-82
2022/12/23 08:32:20;;;;;;;4.93;3.97;;;;;;;6.89;98.45;97767.78;4983341;28;20022;-80
2022/12/23 08:34:45;;;;;;;6.00;3.50;;;;;;;6.99;99.17;97784.59;4986718;28;20037;-78
2022/12/23 08:37:11;;;;;;;5.40;4.50;;;;;;;6.98;99.06;97793.63;4981611;28;20030;-77
2022/12/23 08:39:36;;;;;;;5.32;4.82;;;;;;;6.92;99.08;97801.78;4986827;28;20037;-78
2022/12/23 08:42:02;;;;;;;5.80;4.03;;;;;;;6.83;99.33;97798.78;4983362;28;21851;-78
2022/12/23 08:44:27;;;;;;;6.90;4.22;;;;;;;6.93;99.20;97812.13;4993725;28;20026;-78
2022/12/23 08:46:53;;;;;;;4.68;4.22;;;;;;;6.85;99.34;97812.59;4987512;28;20038;-77
2022/12/23 08:49:18;;;;;;;6.90;4.18;;;;;;;6.84;99.58;97813.63;4994517;28;20033;-77
2022/12/23 08:51:45;;;;;;;6.30;5.05;;;;;;;6.76;99.65;97806.94;4989662;28;20080;-78
2022/12/23 08:54:10;;;;;;;7.05;4.55;;;;;;;7.06;98.70;97810.94;4969282;28;20114;-78
2022/12/23 08:56:40;;;;;;;6.53;4.30;;;;;;;6.90;99.84;97817.16;4984993;28;20121;-77
2022/12/23 08:59:10;;;;;;;5.00;4.45;;;;;;;6.97;100.00;97815.88;4988573;28;20034;-77
2022/12/23 09:01:36;;;;;;;6.32;4.80;;;;;;;6.88;100.00;97817.38;4986193;28;20663;-76
2022/12/23 09:04:03;;;;;;;6.60;4.07;;;;;;;6.88;100.00;97809.41;4990195;28;20046;-76
2022/12/23 09:06:35;;;;;;;6.93;4.95;;;;;;;6.98;100.00;97809.53;4989286;28;20046;-77
2022/12/23 09:09:01;;;;;;;7.60;5.50;;;;;;;7.04;100.00;97813.84;4988718;28;20034;-77
2022/12/23 09:11:28;;;;;;;7.32;5.20;;;;;;;6.80;100.00;97809.88;4989306;28;20058;-77
2022/12/23 09:13:53;;;;;;;8.00;5.40;;;;;;;6.79;100.00;97798.47;4997284;28;20553;-76
2022/12/23 09:16:19;;;;;;;7.50;5.18;;;;;;;7.05;100.00;97804.84;4985286;28;20034;-77
2022/12/23 09:18:45;;;;;;;11.13;6.40;;;;;;;7.03;100.00;97806.13;4983319;28;20030;-76
2022/12/23 09:21:13;;;;;;;7.28;5.53;;;;;;;7.17;100.00;97810.78;4973045;28;20407;-76
2022/12/23 09:23:39;;;;;;;7.72;5.50;;;;;;;7.21;100.00;97814.53;4992937;28;20030;-76
2022/12/23 09:26:06;;;;;;;8.43;6.00;;;;;;;7.16;100.00;97816.34;4992983;28;20045;-76
2022/12/23 09:28:31;;;;;;;8.43;5.40;;;;;;;7.12;100.00;97805.41;4993335;28;20037;-76
2022/12/23 09:30:56;;;;;;;7.65;5.53;;;;;;;7.03;100.00;97801.66;4989005;28;20491;-76
2022/12/23 09:33:22;;;;;;;8.98;6.55;;;;;;;7.11;100.00;97790.56;4981619;28;20038;-76
2022/12/23 09:35:48;;;;;;;8.23;6.03;;;;;;;7.20;100.00;97804.16;4983618;28;20033;-76
2022/12/23 09:38:13;;;;;;;8.80;5.32;;;;;;;7.37;100.00;97818.13;4975090;28;20140;-76
2022/12/23 09:40:40;;;;;;;5.65;4.75;;;;;;;7.18;100.00;97808.94;4987580;28;20096;-76
2022/12/23 09:43:08;;;;;;;7.82;5.30;;;;;;;7.20;100.00;97815.59;4984463;28;20034;-76
2022/12/23 09:45:51;;;;;;;12.95;8.40;;;;;;;6.93;100.00;97804.19;4986090;28;20018;-76
2022/12/23 09:48:21;;;;;;;11.88;7.68;;;;;;;6.99;100.00;97811.13;4982493;28;20061;-76
2022/12/23 09:50:47;;;;;;;14.30;9.85;;;;;;;6.83;100.00;97804.09;4990409;28;20124;-76
2022/12/23 09:53:17;;;;;;;12.88;8.13;;;;;;;6.91;100.00;97808.13;4988716;28;20030;-77
2022/12/23 09:56:12;;;;;;;8.50;6.30;;;;;;;6.99;100.00;97807.69;4983027;28;20062;-76
2022/12/23 09:59:16;;;;;;;9.07;6.90;;;;;;;7.18;100.00;97816.88;4992593;28;20034;-76
2022/12/23 10:02:14;;;;;;;8.57;6.05;;;;;;;7.27;100.00;97821.47;4982482;28;20038;-75
2022/12/23 10:04:39;;;;;;;;;;;;;;;7.23;100.00;97820.38;4983205;28;20574;-76
2022/12/23 10:07:04;;;;;;;7.40;5.57;;;;;;;7.30;100.00;97820.97;4985551;28;19964;-75
2022/12/23 10:09:35;;;;;;;8.25;5.88;;;;;;;7.31;100.00;97824.44;4981726;28;20022;-75
2022/12/23 10:12:16;;;;;;;4.68;3.95;;;;;;;7.32;100.00;97824.19;4995904;28;20434;-75
2022/12/23 10:14:44;;;;;;;6.65;5.25;;;;;;;7.49;100.00;97827.50;4985036;28;20108;-79
2022/12/23 10:17:24;;;;;;;6.65;5.20;;;;;;;7.28;100.00;97833.69;4983223;28;20023;-76
2022/12/23 10:19:52;;;;;;;6.78;4.38;;;;;;;7.30;100.00;97828.94;4988724;28;20037;-76
2022/12/23 10:22:37;;;;;;;6.25;3.85;;;;;;;7.20;100.00;97820.91;4980594;28;20091;-74
2022/12/23 10:25:11;;;;;;;9.00;5.20;;;;;;;7.29;100.00;97829.19;4987505;28;20108;-76
2022/12/23 10:27:39;;;;;;;5.70;3.90;;;;;;;7.45;100.00;97831.72;4983586;28;20065;-73
2022/12/23 10:30:13;;;;;;;6.05;4.43;;;;;;;7.29;100.00;97831.84;4990233;28;20034;-75
2022/12/23 10:33:03;;;;;;;5.78;4.28;;;;;;;7.05;100.00;97804.84;4986689;28;20105;-76
2022/12/23 10:35:42;;;;;;;6.10;4.13;;;;;;;7.03;100.00;97804.28;4983942;28;20041;-78
2022/12/23 10:38:34;;;;;;;8.27;5.13;;;;;;;7.19;100.00;97808.66;4976615;28;20035;-79
2022/12/23 10:41:21;;;;;;;8.00;5.90;;;;;;;7.04;100.00;97803.22;4978043;28;20030;-75
2022/12/23 10:44:20;;;;;;;5.78;4.82;;;;;;;7.12;100.00;97788.72;4984964;28;20045;-75
2022/12/23 10:47:13;;;;;;;5.97;4.82;;;;;;;7.26;100.00;97792.53;4976070;28;20122;-75
2022/12/23 10:49:50;;;;;;;7.55;5.45;;;;;;;7.45;100.00;97797.22;4985180;28;20387;-73
2022/12/23 10:52:26;;;;;;;4.40;3.58;;;;;;;7.51;99.29;97788.22;4981141;28;20030;-73
2022/12/23 10:54:51;;;;;;;11.13;7.40;;;;;;;7.35;100.00;97785.72;4981505;28;20097;-74
2022/12/23 10:57:18;;;;;;;7.13;4.70;;;;;;;7.40;100.00;97793.72;4985468;28;20042;-75
2022/12/23 10:59:44;;;;;;;6.18;5.15;;;;;;;7.55;99.38;97781.38;4981340;28;20041;-74
2022/12/23 11:02:12;;;;;;;8.77;7.00;;;;;;;7.47;99.94;97783.69;4982105;28;20038;-74
2022/12/23 11:04:39;;;;;;;10.48;6.30;;;;;;;7.39;99.32;97784.97;4984787;28;20093;-75
2022/12/23 11:07:07;;;;;;;8.02;6.47;;;;;;;7.38;100.00;97779.91;4980948;28;20049;-75
2022/12/23 11:09:39;;;;;;;10.27;7.00;;;;;;;7.49;100.00;97777.06;4972875;28;20037;-75
2022/12/23 11:12:07;;;;;;;9.45;7.20;;;;;;;7.57;99.37;97778.47;4994317;28;20121;-74
2022/12/23 11:14:40;;;;;;;8.52;6.50;;;;;;;7.53;99.88;97770.19;4987099;28;20161;-74
2022/12/23 11:17:19;;;;;;;8.65;7.10;;;;;;;7.53;98.66;97786.13;4983846;28;20026;-74
2022/12/23 11:19:44;;;;;;;8.40;6.22;;;;;;;7.46;99.72;97776.78;4985849;28;20033;-75
2022/12/23 11:22:21;;;;;;;9.52;6.88;;;;;;;7.61;98.70;97786.69;4988937;28;20112;-75
2022/12/23 11:24:47;;;;;;;9.60;6.88;;;;;;;7.65;98.68;97783.28;4982938;28;20038;-75
2022/12/23 11:27:17;;;;;;;9.25;6.60;;;;;;;7.60;98.31;97772.63;4982790;28;20483;-76
2022/12/23 11:29:53;;;;;;;8.98;5.95;;;;;;;7.55;99.72;97775.25;4989421;28;20117;-79
2022/12/23 11:32:25;;;;;;;9.65;6.43;;;;;;;7.56;99.37;97779.50;4985016;28;20018;-76
2022/12/23 11:34:52;;;;;;;8.65;6.63;;;;;;;7.64;98.77;97779.03;4981341;28;20058;-76
2022/12/23 11:37:40;;;;;;;10.13;6.35;;;;;;;7.59;99.93;97776.34;4982291;28;20038;-76
2022/12/23 11:40:19;;;;;;;7.60;5.30;;;;;;;7.57;98.93;97766.00;4983008;28;20034;-76
2022/12/23 11:42:45;;;;;;;7.57;6.07;;;;;;;7.67;98.00;97759.13;4982312;28;20050;-76
2022/12/23 11:45:22;;;;;;;9.80;7.03;;;;;;;7.56;98.44;97759.06;4992453;28;20499;-77
2022/12/23 11:47:48;;;;;;;10.10;6.45;;;;;;;7.53;99.28;97746.28;4991985;28;20109;-77
2022/12/23 11:50:20;;;;;;;8.73;6.88;;;;;;;7.47;99.71;97754.47;4985348;28;20109;-77
2022/12/23 11:52:54;;;;;;;12.85;6.35;;;;;;;7.63;98.64;97742.09;4990205;28;20014;-78
2022/12/23 11:55:25;;;;;;;8.90;5.82;;;;;;;7.66;98.76;97741.59;4987265;28;20057;-78
2022/12/23 11:57:51;;;;;;;9.05;6.22;;;;;;;7.69;98.26;97725.94;4991843;28;20030;-78
2022/12/23 12:00:24;;;;;;;8.70;6.63;;;;;;;7.63;97.85;97734.13;4990715;28;20034;-75
2022/12/23 12:02:53;;;;;;;10.25;6.50;;;;;;;7.59;99.15;97728.56;4985564;28;20056;-78
2022/12/23 12:05:45;;;;;;;9.20;6.72;;;;;;;7.68;98.45;97726.22;4988922;28;20037;-79
2022/12/23 12:08:14;;;;;;;11.05;6.07;;;;;;;7.61;99.19;97720.31;4986809;28;20065;-78
2022/12/23 12:10:41;;;;;;;8.75;6.13;;;;;;;7.58;99.47;97711.00;4991023;28;20476;-79